Time;durP1;ratioP1;P1;durP2;ratioP2;P2;SDS_P1;SDS_P2;PMS_P1;PMS_P2;Temp;Humidity;BMP_temperature;BMP_pressure;BME280_temperature;BME280_humidity;BME280_pressure;Samples;Min_cycle;Max_cycle;Signal;HPM_P1;HPM_P2
2022/11/02 00:00:55;;;;;;;4.43;2.20;;;10.20;99.90;;;;;;4147004;28;20242;-77
2022/11/02 00:02:57;;;;;;;2.97;1.87;;;10.20;99.90;;;;;;4146371;28;20678;-77
2022/11/02 00:04:59;;;;;;;3.93;1.80;;;10.20;99.90;;;;;;4145043;28;20248;-77
2022/11/02 00:07:01;;;;;;;3.80;1.90;;;10.20;99.90;;;;;;4145499;28;20212;-77
2022/11/02 00:09:03;;;;;;;5.80;2.03;;;10.10;99.90;;;;;;4155336;28;20286;-77
2022/11/02 00:11:06;;;;;;;7.27;2.17;;;10.10;99.90;;;;;;4161267;28;20301;-77
2022/11/02 00:13:08;;;;;;;4.63;2.40;;;10.00;99.90;;;;;;4139798;28;20232;-77
2022/11/02 00:15:11;;;;;;;10.07;2.20;;;10.00;99.90;;;;;;4146637;28;20227;-77
2022/11/02 00:17:13;;;;;;;5.53;2.27;;;10.00;99.90;;;;;;4146637;28;20291;-77
2022/11/02 00:19:15;;;;;;;6.53;2.20;;;10.00;99.90;;;;;;4146617;28;20274;-76
2022/11/02 00:21:18;;;;;;;5.73;2.57;;;10.00;99.90;;;;;;4146404;28;20205;-77
2022/11/02 00:23:20;;;;;;;5.47;2.20;;;10.00;99.90;;;;;;4161598;28;20230;-77
2022/11/02 00:25:23;;;;;;;3.30;1.93;;;9.90;99.90;;;;;;4144460;28;20235;-79
2022/11/02 00:27:28;;;;;;;4.30;1.93;;;9.90;99.90;;;;;;4144538;28;20251;-77
2022/11/02 00:29:30;;;;;;;4.67;2.40;;;9.90;99.90;;;;;;4146791;28;20479;-77
2022/11/02 00:31:32;;;;;;;7.00;2.23;;;9.90;99.90;;;;;;4134977;28;20300;-77
2022/11/02 00:33:34;;;;;;;3.97;2.10;;;9.90;99.90;;;;;;4161709;28;20228;-76
2022/11/02 00:35:36;;;;;;;7.13;2.47;;;9.80;99.90;;;;;;4146339;28;20295;-76
2022/11/02 00:37:38;;;;;;;7.63;2.57;;;9.80;99.90;;;;;;4145115;28;20818;-77
2022/11/02 00:39:40;;;;;;;4.60;2.07;;;9.80;99.90;;;;;;4157599;28;20212;-77
2022/11/02 00:41:41;;;;;;;6.37;2.50;;;9.80;99.90;;;;;;4145665;28;20200;-78
2022/11/02 00:43:45;;;;;;;8.43;2.87;;;9.80;99.90;;;;;;4140393;28;20449;-78
2022/11/02 00:45:47;;;;;;;4.07;2.03;;;9.70;99.90;;;;;;4145562;28;20497;-77
2022/11/02 00:47:51;;;;;;;4.53;2.47;;;9.70;99.90;;;;;;4144604;28;20498;-77
2022/11/02 00:49:53;;;;;;;4.07;2.20;;;9.70;99.90;;;;;;4159401;28;20847;-77
2022/11/02 00:51:55;;;;;;;7.60;2.30;;;9.70;99.90;;;;;;4144263;28;20196;-78
2022/11/02 00:53:57;;;;;;;5.57;2.17;;;9.70;99.90;;;;;;4144124;28;20285;-77
2022/11/02 00:55:59;;;;;;;3.93;2.23;;;9.70;99.90;;;;;;4144194;28;20573;-77
2022/11/02 00:58:00;;;;;;;6.70;2.43;;;9.60;99.90;;;;;;4143291;28;20525;-76
2022/11/02 01:00:04;;;;;;;9.37;2.23;;;9.60;99.90;;;;;;4145211;28;20546;-78
2022/11/02 01:02:06;;;;;;;3.83;2.20;;;9.60;99.90;;;;;;4145797;28;20546;-76
2022/11/02 01:04:08;;;;;;;5.33;2.33;;;9.60;99.90;;;;;;4143959;28;20443;-78
2022/11/02 01:06:11;;;;;;;3.47;2.13;;;9.60;99.90;;;;;;4140678;28;20262;-77
2022/11/02 01:08:13;;;;;;;5.23;2.53;;;9.50;99.90;;;;;;4155769;28;20207;-76
2022/11/02 01:10:15;;;;;;;5.90;2.17;;;9.50;99.90;;;;;;4142551;28;20907;-76
2022/11/02 01:12:17;;;;;;;5.73;2.80;;;9.50;99.90;;;;;;4143322;28;20452;-77
2022/11/02 01:14:19;;;;;;;7.57;3.17;;;9.40;99.90;;;;;;4145882;28;20585;-77
2022/11/02 01:16:22;;;;;;;6.43;2.77;;;9.50;99.90;;;;;;4144204;28;20252;-77
2022/11/02 01:18:24;;;;;;;4.43;2.30;;;9.40;99.90;;;;;;4141741;28;20495;-79
2022/11/02 01:20:26;;;;;;;6.80;2.57;;;9.40;99.90;;;;;;4142683;28;20519;-78
2022/11/02 01:22:28;;;;;;;3.77;2.03;;;9.30;99.90;;;;;;4145427;28;20545;-78
2022/11/02 01:24:30;;;;;;;7.47;2.77;;;9.30;99.90;;;;;;4147325;28;20512;-78
2022/11/02 01:26:32;;;;;;;5.30;2.93;;;9.30;99.90;;;;;;4159930;28;20524;-76
2022/11/02 01:28:34;;;;;;;3.80;2.53;;;9.30;99.90;;;;;;4161485;28;20450;-77
2022/11/02 01:30:38;;;;;;;5.80;2.53;;;9.30;99.90;;;;;;4143696;28;21027;-78
2022/11/02 01:32:41;;;;;;;4.30;2.57;;;9.30;99.90;;;;;;4146902;28;20504;-77
2022/11/02 01:34:43;;;;;;;5.67;2.60;;;9.20;99.90;;;;;;4146522;28;20493;-77
2022/11/02 01:36:45;;;;;;;6.03;2.17;;;9.20;99.90;;;;;;4148374;28;20573;-78
2022/11/02 01:38:48;;;;;;;3.57;2.17;;;9.20;99.90;;;;;;4148137;28;20221;-77
2022/11/02 01:40:50;;;;;;;6.60;2.00;;;9.20;99.90;;;;;;4146430;28;20976;-77
2022/11/02 01:42:52;;;;;;;7.30;2.40;;;9.20;99.90;;;;;;4144994;28;20532;-77
2022/11/02 01:44:54;;;;;;;7.53;3.23;;;9.10;99.90;;;;;;4146758;28;20511;-76
2022/11/02 01:47:02;;;;;;;3.90;2.27;;;9.10;99.90;;;;;;4144151;28;20467;-77
2022/11/02 01:49:11;;;;;;;5.13;2.57;;;9.20;99.90;;;;;;4148845;28;20453;-76
2022/11/02 01:51:16;;;;;;;4.90;2.30;;;9.10;99.90;;;;;;4147655;28;20955;-77
2022/11/02 01:53:18;;;;;;;4.73;2.20;;;9.10;99.90;;;;;;4147095;28;20478;-77
2022/11/02 01:55:22;;;;;;;4.93;2.00;;;9.00;99.90;;;;;;4148057;28;20469;-77
2022/11/02 01:57:27;;;;;;;7.10;2.47;;;9.00;99.90;;;;;;4147052;28;20537;-78
2022/11/02 01:59:32;;;;;;;7.33;2.40;;;9.00;99.90;;;;;;4163634;28;20471;-76
2022/11/02 02:01:34;;;;;;;5.33;2.50;;;9.00;99.90;;;;;;4145126;28;20489;-79
2022/11/02 02:03:37;;;;;;;6.80;2.50;;;9.00;99.90;;;;;;4148207;28;20477;-77
2022/11/02 02:05:47;;;;;;;5.57;2.50;;;9.00;99.90;;;;;;4153032;28;20486;-77
2022/11/02 02:07:50;;;;;;;5.67;2.40;;;9.00;99.90;;;;;;4141859;28;20454;-78
2022/11/02 02:09:53;;;;;;;9.43;2.57;;;8.90;99.90;;;;;;4145823;28;20438;-77
2022/11/02 02:11:55;;;;;;;3.47;2.23;;;9.00;99.90;;;;;;4161831;28;20497;-77
2022/11/02 02:14:00;;;;;;;6.23;2.47;;;9.00;99.90;;;;;;4148269;28;20910;-77
2022/11/02 02:16:09;;;;;;;6.93;2.90;;;8.90;99.90;;;;;;4147594;28;20565;-77
2022/11/02 02:18:17;;;;;;;4.20;2.27;;;8.90;99.90;;;;;;4163639;28;20466;-77
2022/11/02 02:20:39;;;;;;;7.00;2.57;;;8.90;99.90;;;;;;4148405;28;20796;-77
2022/11/02 02:23:06;;;;;;;3.67;1.93;;;8.90;99.90;;;;;;4163426;28;20490;-77
2022/11/02 02:25:24;;;;;;;8.67;2.87;;;8.90;99.90;;;;;;4142814;28;20462;-76
2022/11/02 02:27:34;;;;;;;6.33;2.13;;;8.90;99.90;;;;;;4148290;28;21334;-77
2022/11/02 02:29:47;;;;;;;7.07;2.37;;;8.90;99.90;;;;;;4147669;28;20446;-78
2022/11/02 02:31:56;;;;;;;5.73;2.40;;;8.90;99.90;;;;;;4145549;28;20485;-77
2022/11/02 02:34:04;;;;;;;4.47;2.53;;;8.90;99.90;;;;;;4148235;28;20480;-78
2022/11/02 02:36:13;;;;;;;6.53;2.50;;;8.90;99.90;;;;;;4141086;28;20467;-77
2022/11/02 02:38:22;;;;;;;5.03;2.20;;;8.90;99.90;;;;;;4137986;28;20669;-77
2022/11/02 02:40:31;;;;;;;5.53;2.20;;;8.90;99.90;;;;;;4144217;28;20492;-77
2022/11/02 02:42:36;;;;;;;9.47;2.40;;;8.90;99.90;;;;;;4161456;28;20456;-77
2022/11/02 02:44:46;;;;;;;4.57;2.37;;;9.00;99.90;;;;;;4148089;28;20473;-77
2022/11/02 02:46:56;;;;;;;3.90;1.87;;;8.90;99.90;;;;;;4145307;28;20518;-77
2022/11/02 02:49:00;;;;;;;5.83;2.20;;;8.90;99.90;;;;;;4147862;28;20454;-77
2022/11/02 02:51:08;;;;;;;8.43;2.37;;;8.90;99.90;;;;;;4147747;28;20537;-78
2022/11/02 02:53:11;;;;;;;3.43;1.80;;;8.90;99.90;;;;;;4147731;28;20553;-77
2022/11/02 02:55:17;;;;;;;5.60;1.97;;;8.90;99.90;;;;;;4145172;28;21144;-78
2022/11/02 02:57:22;;;;;;;4.23;1.90;;;8.90;99.90;;;;;;4144538;28;20455;-77
2022/11/02 02:59:29;;;;;;;4.87;1.67;;;8.90;99.90;;;;;;4145497;28;20501;-77
2022/11/02 03:01:33;;;;;;;5.00;2.30;;;8.90;99.90;;;;;;4147341;28;20987;-77
2022/11/02 03:03:35;;;;;;;4.60;1.73;;;8.90;99.90;;;;;;4147591;28;20486;-77
2022/11/02 03:05:38;;;;;;;5.83;1.93;;;8.90;99.90;;;;;;4160297;28;20321;-77
2022/11/02 03:07:40;;;;;;;3.47;1.80;;;8.90;99.90;;;;;;4147385;28;20533;-76
2022/11/02 03:09:49;;;;;;;4.83;1.93;;;8.90;99.90;;;;;;4138375;28;20893;-77
2022/11/02 03:12:00;;;;;;;4.40;1.90;;;8.90;99.90;;;;;;4160585;28;20977;-78
2022/11/02 03:14:11;;;;;;;3.07;1.77;;;8.90;99.90;;;;;;4145749;28;20475;-77
2022/11/02 03:16:24;;;;;;;3.77;1.67;;;8.90;99.90;;;;;;4162644;28;20480;-76
2022/11/02 03:18:39;;;;;;;8.83;1.87;;;8.90;99.90;;;;;;4140039;28;20442;-77
2022/11/02 03:20:57;;;;;;;3.93;2.00;;;8.90;99.90;;;;;;4147265;28;20459;-77
2022/11/02 03:23:07;;;;;;;5.70;1.60;;;8.90;99.90;;;;;;4159114;28;20461;-77
2022/11/02 03:25:17;;;;;;;4.07;1.63;;;8.90;99.90;;;;;;4159944;28;20571;-77
2022/11/02 03:27:24;;;;;;;4.00;1.70;;;8.90;99.90;;;;;;4142887;28;20489;-77
2022/11/02 03:29:33;;;;;;;7.00;2.60;;;8.90;99.90;;;;;;4145142;28;21263;-77
2022/11/02 03:31:41;;;;;;;5.73;1.40;;;8.90;99.90;;;;;;4146049;28;20458;-77
2022/11/02 03:33:53;;;;;;;5.93;1.93;;;8.90;99.90;;;;;;4147114;28;20457;-77
2022/11/02 03:35:57;;;;;;;6.83;1.70;;;8.90;99.90;;;;;;4138826;28;20492;-77
2022/11/02 03:38:03;;;;;;;5.20;1.50;;;8.90;99.90;;;;;;4146405;28;20489;-78
2022/11/02 03:40:10;;;;;;;4.67;1.20;;;8.90;99.90;;;;;;4149986;28;20481;-76
2022/11/02 03:42:19;;;;;;;4.87;1.50;;;8.90;99.90;;;;;;4146695;28;20450;-78
2022/11/02 03:44:24;;;;;;;5.90;1.50;;;8.90;99.90;;;;;;4143022;28;20509;-78
2022/11/02 03:46:29;;;;;;;8.83;2.00;;;8.90;99.90;;;;;;4145072;28;20492;-77
2022/11/02 03:48:46;;;;;;;4.77;1.50;;;8.90;99.90;;;;;;4143023;28;20470;-78
2022/11/02 03:50:52;;;;;;;4.13;1.43;;;8.90;99.90;;;;;;4144659;28;21020;-77
2022/11/02 03:52:57;;;;;;;7.37;1.60;;;8.90;99.90;;;;;;4138924;28;20546;-77
2022/11/02 03:55:05;;;;;;;6.93;1.63;;;8.90;99.90;;;;;;4146756;28;21086;-77
2022/11/02 03:57:10;;;;;;;3.43;1.37;;;8.90;99.90;;;;;;4143744;28;20471;-77
2022/11/02 03:59:14;;;;;;;4.27;1.40;;;8.90;99.90;;;;;;4147320;28;20970;-77
2022/11/02 04:01:18;;;;;;;4.43;1.90;;;9.00;99.90;;;;;;4146473;28;21336;-77
2022/11/02 04:03:23;;;;;;;8.53;1.63;;;8.90;99.90;;;;;;4145470;28;20578;-76
2022/11/02 04:05:28;;;;;;;4.13;1.63;;;8.90;99.90;;;;;;4157855;28;20566;-77
2022/11/02 04:09:51;;;;;;;5.30;1.40;;;9.00;99.90;;;;;;4138889;28;20625;-77
2022/11/02 04:16:32;;;;;;;7.43;1.60;;;9.00;99.90;;;;;;4144804;28;20462;-77
2022/11/02 04:20:54;;;;;;;3.87;1.43;;;9.00;99.90;;;;;;4139586;28;20455;-78
2022/11/02 04:25:20;;;;;;;4.13;1.20;;;9.00;99.90;;;;;;4145509;28;20466;-78
2022/11/02 04:27:22;;;;;;;6.17;1.70;;;9.00;99.90;;;;;;4147004;28;20458;-78
2022/11/02 04:29:23;;;;;;;6.33;1.73;;;9.00;99.90;;;;;;4161366;28;20458;-78
2022/11/02 04:31:25;;;;;;;6.10;1.43;;;9.00;99.90;;;;;;4147090;28;20463;-78
2022/11/02 04:33:32;;;;;;;6.13;1.40;;;9.00;99.90;;;;;;4146542;28;20458;-78
2022/11/02 04:35:36;;;;;;;4.83;1.83;;;9.00;99.90;;;;;;4157783;28;21011;-78
2022/11/02 04:39:59;;;;;;;5.77;1.60;;;8.90;99.90;;;;;;4145501;28;20475;-78
2022/11/02 04:42:02;;;;;;;7.00;2.20;;;9.00;99.90;;;;;;4143616;28;20208;-78
2022/11/02 04:44:04;;;;;;;6.73;1.87;;;9.00;99.90;;;;;;4145301;28;20465;-78
2022/11/02 04:46:06;;;;;;;5.13;1.47;;;9.00;99.90;;;;;;4139274;28;20234;-78
2022/11/02 04:48:09;;;;;;;5.23;1.40;;;9.60;99.90;;;;;;4144495;28;20497;-78
2022/11/02 04:50:11;;;;;;;5.93;1.47;;;9.00;99.90;;;;;;4140713;28;20208;-78
2022/11/02 04:52:13;;;;;;;7.13;1.73;;;9.10;99.90;;;;;;4146137;28;20455;-78
2022/11/02 04:54:15;;;;;;;6.20;2.00;;;9.00;99.90;;;;;;4146805;28;20557;-78
2022/11/02 04:56:18;;;;;;;6.47;1.53;;;9.20;99.90;;;;;;4144810;28;20486;-78
2022/11/02 04:58:20;;;;;;;5.17;1.53;;;9.00;99.90;;;;;;4142654;28;21230;-78
2022/11/02 05:00:23;;;;;;;5.60;1.40;;;9.00;99.90;;;;;;4149438;28;20454;-78
2022/11/02 05:02:24;;;;;;;5.23;1.50;;;9.00;99.90;;;;;;4149162;28;20553;-78
2022/11/02 05:04:26;;;;;;;3.70;1.53;;;9.00;99.90;;;;;;4148318;28;20461;-78
2022/11/02 05:06:28;;;;;;;3.03;1.50;;;9.00;99.90;;;;;;4147746;28;20459;-76
2022/11/02 05:08:30;;;;;;;7.97;1.70;;;9.00;99.90;;;;;;4149842;28;20892;-77
2022/11/02 05:10:32;;;;;;;8.50;1.90;;;9.00;99.90;;;;;;4149413;28;20478;-77
2022/11/02 05:12:35;;;;;;;7.37;1.70;;;9.00;99.90;;;;;;4146607;28;20447;-77
2022/11/02 05:14:37;;;;;;;6.57;1.80;;;9.10;99.90;;;;;;4165727;28;21949;-77
2022/11/02 05:16:39;;;;;;;7.50;1.50;;;9.00;99.90;;;;;;4155415;28;20985;-76
2022/11/02 05:18:41;;;;;;;8.93;1.77;;;9.10;99.90;;;;;;4154885;28;20810;-78
2022/11/02 05:20:49;;;;;;;5.43;1.50;;;9.10;99.90;;;;;;4150868;28;21034;-78
2022/11/02 05:22:51;;;;;;;5.93;1.47;;;9.10;99.90;;;;;;4150510;28;20469;-78
2022/11/02 05:24:52;;;;;;;7.30;1.50;;;9.10;99.90;;;;;;4149289;28;20243;-78
2022/11/02 05:26:54;;;;;;;6.07;1.50;;;9.10;99.90;;;;;;4149140;28;20788;-76
2022/11/02 05:28:57;;;;;;;3.73;1.57;;;9.10;99.90;;;;;;4142964;28;20486;-77
2022/11/02 05:31:00;;;;;;;9.73;2.10;;;9.10;99.90;;;;;;4147505;28;20457;-78
2022/11/02 05:33:02;;;;;;;6.10;1.43;;;9.10;99.90;;;;;;4163150;28;20528;-78
2022/11/02 05:35:05;;;;;;;5.97;1.93;;;9.10;99.90;;;;;;4144920;28;20490;-78
2022/11/02 05:37:07;;;;;;;5.83;1.90;;;9.20;99.90;;;;;;4147701;28;20564;-76
2022/11/02 05:39:09;;;;;;;4.80;1.77;;;9.20;99.90;;;;;;4146542;28;20457;-77
2022/11/02 05:41:11;;;;;;;4.47;1.47;;;9.20;99.90;;;;;;4164071;28;20448;-77
2022/11/02 05:43:15;;;;;;;8.90;1.60;;;9.20;99.90;;;;;;4148466;28;20462;-77
2022/11/02 05:45:18;;;;;;;11.47;2.10;;;9.30;99.90;;;;;;4145261;28;20463;-77
2022/11/02 05:47:20;;;;;;;5.27;1.43;;;9.30;99.90;;;;;;4149346;28;20964;-76
2022/11/02 05:49:22;;;;;;;7.00;1.50;;;9.30;99.90;;;;;;4146224;28;20274;-76
2022/11/02 05:51:24;;;;;;;5.60;1.63;;;9.30;99.90;;;;;;4145767;28;20980;-77
2022/11/02 05:53:30;;;;;;;5.13;1.50;;;9.30;99.90;;;;;;4147725;28;21271;-76
2022/11/02 05:55:32;;;;;;;4.60;1.43;;;9.40;99.90;;;;;;4147829;28;20487;-77
2022/11/02 05:57:34;;;;;;;8.27;1.80;;;9.40;99.90;;;;;;4151814;28;20208;-77
2022/11/02 05:59:36;;;;;;;6.13;1.70;;;9.40;99.90;;;;;;4149068;28;20501;-77
2022/11/02 06:01:41;;;;;;;9.20;1.60;;;9.40;99.90;;;;;;4148514;28;20454;-77
2022/11/02 06:03:43;;;;;;;7.90;2.00;;;9.40;99.90;;;;;;4160290;28;20902;-76
2022/11/02 06:05:56;;;;;;;6.67;1.60;;;9.40;99.90;;;;;;4149878;28;20883;-76
2022/11/02 06:07:59;;;;;;;3.10;1.20;;;9.40;99.90;;;;;;4163548;28;20281;-76
2022/11/02 06:10:01;;;;;;;4.93;1.47;;;9.90;99.90;;;;;;4147044;28;20207;-77
2022/11/02 06:12:03;;;;;;;5.13;1.40;;;9.50;99.90;;;;;;4146935;28;20559;-78
2022/11/02 06:14:05;;;;;;;9.97;1.60;;;9.50;99.90;;;;;;4147988;28;20546;-78
2022/11/02 06:16:09;;;;;;;7.77;1.73;;;9.50;99.90;;;;;;4155996;28;20571;-76
2022/11/02 06:18:12;;;;;;;8.23;1.43;;;9.50;99.90;;;;;;4147627;28;20302;-78
2022/11/02 06:20:15;;;;;;;6.47;1.43;;;9.50;99.90;;;;;;4148103;28;20230;-76
2022/11/02 06:22:16;;;;;;;4.97;1.53;;;9.50;99.90;;;;;;4146957;28;20921;-77
2022/11/02 06:24:18;;;;;;;4.13;1.33;;;9.50;99.90;;;;;;4146415;28;20234;-76
2022/11/02 06:26:21;;;;;;;4.83;1.40;;;9.50;99.90;;;;;;4147499;28;20607;-77
2022/11/02 06:28:23;;;;;;;4.73;1.20;;;9.60;99.90;;;;;;4145654;28;20209;-76
2022/11/02 06:30:25;;;;;;;7.17;1.50;;;9.60;99.90;;;;;;4145738;28;20490;-76
2022/11/02 06:32:27;;;;;;;5.90;1.47;;;9.60;99.90;;;;;;4159981;28;20458;-76
2022/11/02 06:34:30;;;;;;;10.97;1.70;;;9.60;99.90;;;;;;4145743;28;20287;-76
2022/11/02 06:36:32;;;;;;;7.83;1.43;;;9.60;99.90;;;;;;4151404;28;20569;-77
2022/11/02 06:38:34;;;;;;;9.07;1.63;;;9.60;99.90;;;;;;4147158;28;20212;-79
2022/11/02 06:40:36;;;;;;;8.63;1.77;;;9.60;99.90;;;;;;4143259;28;20461;-76
2022/11/02 06:42:38;;;;;;;8.37;1.80;;;9.60;99.90;;;;;;4149269;28;20211;-77
2022/11/02 06:44:40;;;;;;;6.00;1.33;;;9.60;99.90;;;;;;4147817;28;20228;-77
2022/11/02 06:46:42;;;;;;;6.03;1.70;;;9.60;99.90;;;;;;4148191;28;20462;-77
2022/11/02 06:48:46;;;;;;;6.50;1.40;;;9.60;99.90;;;;;;4143881;28;20550;-77
2022/11/02 06:50:49;;;;;;;6.57;1.43;;;9.60;99.90;;;;;;4146018;28;20242;-77
2022/11/02 06:52:52;;;;;;;5.63;1.63;;;9.70;99.90;;;;;;4146015;28;20227;-76
2022/11/02 06:54:54;;;;;;;6.03;2.00;;;9.70;99.90;;;;;;4147702;28;21014;-78
2022/11/02 06:56:56;;;;;;;4.70;1.60;;;9.70;99.90;;;;;;4137110;28;21608;-77
2022/11/02 06:58:58;;;;;;;3.77;1.50;;;9.70;99.90;;;;;;4138013;28;20288;-77
2022/11/02 07:01:01;;;;;;;3.70;1.40;;;9.70;99.90;;;;;;4146878;28;20304;-78
2022/11/02 07:03:09;;;;;;;8.83;1.50;;;9.70;99.90;;;;;;4162801;28;20203;-78
2022/11/02 07:05:11;;;;;;;6.33;1.90;;;9.70;99.90;;;;;;4147632;28;20470;-77
2022/11/02 07:07:15;;;;;;;9.40;1.70;;;9.70;99.90;;;;;;4146098;28;20204;-78
2022/11/02 07:09:16;;;;;;;3.20;1.40;;;9.70;99.90;;;;;;4146558;28;20211;-78
2022/11/02 07:11:18;;;;;;;5.63;1.70;;;9.80;99.90;;;;;;4137480;28;20212;-78
2022/11/02 07:13:20;;;;;;;7.50;1.63;;;9.80;99.90;;;;;;4144972;28;20469;-77
2022/11/02 07:15:24;;;;;;;5.63;1.50;;;9.80;99.90;;;;;;4160808;28;20495;-76
2022/11/02 07:17:26;;;;;;;6.93;1.90;;;9.80;99.90;;;;;;4148045;28;20736;-76
2022/11/02 07:19:28;;;;;;;5.13;1.43;;;9.80;99.90;;;;;;4148659;28;20211;-76
2022/11/02 07:21:30;;;;;;;4.17;1.47;;;9.80;99.90;;;;;;4143641;28;20215;-76
2022/11/02 07:23:33;;;;;;;5.23;1.40;;;9.80;99.90;;;;;;4158624;28;20215;-76
2022/11/02 07:25:35;;;;;;;9.30;1.50;;;9.80;99.90;;;;;;4149671;28;20314;-76
2022/11/02 07:27:40;;;;;;;6.53;1.80;;;9.90;99.90;;;;;;4145383;28;20212;-78
2022/11/02 07:29:42;;;;;;;5.27;1.33;;;10.00;99.90;;;;;;4146266;28;20739;-77
2022/11/02 07:31:45;;;;;;;12.53;2.10;;;9.90;99.90;;;;;;4145668;28;20215;-78
2022/11/02 07:33:47;;;;;;;7.13;1.70;;;9.90;99.90;;;;;;4144421;28;20208;-78
2022/11/02 07:35:49;;;;;;;5.40;1.50;;;10.00;99.90;;;;;;4145372;28;20235;-76
2022/11/02 07:37:58;;;;;;;3.80;1.20;;;10.00;99.90;;;;;;4160551;28;20208;-76
2022/11/02 07:40:01;;;;;;;6.90;1.67;;;10.00;99.90;;;;;;4144091;28;20251;-79
2022/11/02 07:42:05;;;;;;;6.83;1.50;;;10.10;99.90;;;;;;4144255;28;20220;-77
2022/11/02 07:44:07;;;;;;;3.47;1.40;;;10.10;99.90;;;;;;4160849;28;20274;-76
2022/11/02 07:46:10;;;;;;;8.70;1.60;;;10.10;99.90;;;;;;4159820;28;20228;-77
2022/11/02 07:48:12;;;;;;;8.67;1.73;;;10.20;99.90;;;;;;4147434;28;20207;-77
2022/11/02 07:50:15;;;;;;;5.73;1.70;;;10.20;99.90;;;;;;4146276;28;20248;-76
2022/11/02 07:52:17;;;;;;;6.13;1.40;;;10.20;99.90;;;;;;4146773;28;20200;-77
2022/11/02 07:54:19;;;;;;;4.67;1.40;;;10.30;99.90;;;;;;4161239;28;20282;-77
2022/11/02 07:56:22;;;;;;;4.07;1.37;;;10.30;99.90;;;;;;4147469;28;20225;-77
2022/11/02 07:58:24;;;;;;;4.87;1.77;;;10.40;99.90;;;;;;4157307;28;20200;-78
2022/11/02 08:00:27;;;;;;;5.83;1.37;;;10.40;99.90;;;;;;4167216;28;20300;-79
2022/11/02 08:02:29;;;;;;;9.07;1.50;;;10.50;99.90;;;;;;4147016;28;20243;-77
2022/11/02 08:04:31;;;;;;;4.60;1.30;;;10.50;99.90;;;;;;4145616;28;20599;-78
2022/11/02 08:06:34;;;;;;;9.13;1.60;;;10.60;99.90;;;;;;4146242;28;20237;-78
2022/11/02 08:08:36;;;;;;;5.27;1.50;;;10.60;99.90;;;;;;4146612;28;20243;-77
2022/11/02 08:10:38;;;;;;;5.30;1.50;;;10.70;99.90;;;;;;4150275;28;20228;-78
2022/11/02 08:12:42;;;;;;;7.70;1.90;;;10.70;99.90;;;;;;4142732;28;20293;-77
2022/11/02 08:14:43;;;;;;;5.53;1.80;;;10.80;99.90;;;;;;4147734;28;20312;-77
2022/11/02 08:16:46;;;;;;;6.67;1.67;;;10.80;99.90;;;;;;4146421;28;20236;-78
2022/11/02 08:18:48;;;;;;;7.67;1.43;;;10.90;99.90;;;;;;4145128;28;20272;-77
2022/11/02 08:20:51;;;;;;;7.40;1.73;;;10.90;99.90;;;;;;4161473;28;20695;-77
2022/11/02 08:22:53;;;;;;;7.07;1.77;;;11.00;99.90;;;;;;4149367;28;20220;-78
2022/11/02 08:24:54;;;;;;;6.10;1.67;;;11.10;99.90;;;;;;4145088;28;20831;-77
2022/11/02 08:26:56;;;;;;;6.10;1.57;;;11.10;99.90;;;;;;4149088;28;20664;-77
2022/11/02 08:28:59;;;;;;;9.63;2.07;;;11.20;99.90;;;;;;4161048;28;20206;-77
2022/11/02 08:31:01;;;;;;;7.60;1.70;;;11.30;99.90;;;;;;4143888;28;20289;-78
2022/11/02 08:33:07;;;;;;;5.20;1.43;;;11.30;99.90;;;;;;4159398;28;20263;-77
2022/11/02 08:35:12;;;;;;;7.50;1.70;;;11.40;99.90;;;;;;4159680;28;20242;-77
2022/11/02 08:37:14;;;;;;;7.13;1.30;;;11.50;99.90;;;;;;4145161;28;20229;-79
2022/11/02 08:39:15;;;;;;;7.27;2.23;;;11.60;99.90;;;;;;4146498;28;20242;-79
2022/11/02 08:41:17;;;;;;;8.87;1.80;;;11.60;99.90;;;;;;4148808;28;20206;-76
2022/11/02 08:43:19;;;;;;;6.97;1.70;;;11.70;99.90;;;;;;4146762;28;20222;-77
2022/11/02 08:45:23;;;;;;;9.33;1.77;;;11.80;99.90;;;;;;4143970;28;20235;-78
2022/11/02 08:47:25;;;;;;;4.03;1.37;;;11.80;99.90;;;;;;4146228;28;20702;-78
2022/11/02 08:49:27;;;;;;;8.13;1.70;;;11.90;99.90;;;;;;4158737;28;20236;-78
2022/11/02 08:51:29;;;;;;;6.70;1.60;;;11.90;99.90;;;;;;4144878;28;20293;-77
2022/11/02 08:53:30;;;;;;;9.33;1.73;;;12.00;99.90;;;;;;4142511;28;20207;-77
2022/11/02 08:55:32;;;;;;;6.03;1.43;;;12.10;99.90;;;;;;4142960;28;20713;-78
2022/11/02 08:57:45;;;;;;;8.30;1.50;;;12.10;99.90;;;;;;4142224;28;20300;-79
2022/11/02 08:59:46;;;;;;;15.30;1.73;;;12.10;99.90;;;;;;4157746;28;20214;-78
2022/11/02 09:01:50;;;;;;;7.67;1.70;;;12.20;99.90;;;;;;4149232;28;20707;-78
2022/11/02 09:03:52;;;;;;;8.47;1.60;;;12.30;99.90;;;;;;4144760;28;20237;-77
2022/11/02 09:05:57;;;;;;;7.20;1.50;;;12.30;99.90;;;;;;4144994;28;20227;-78
2022/11/02 09:08:03;;;;;;;6.47;1.80;;;12.40;99.90;;;;;;4160670;28;20296;-78
2022/11/02 09:10:06;;;;;;;6.67;1.30;;;12.50;99.90;;;;;;4156378;28;20199;-79
2022/11/02 09:12:08;;;;;;;11.60;1.70;;;12.60;99.90;;;;;;4144035;28;20220;-76
2022/11/02 09:14:10;;;;;;;6.20;1.47;;;12.60;99.90;;;;;;4145434;28;21816;-76
2022/11/02 09:16:12;;;;;;;10.03;1.80;;;12.70;99.90;;;;;;4143976;28;20236;-77
2022/11/02 09:18:15;;;;;;;5.93;1.70;;;12.70;99.90;;;;;;4145203;28;20693;-76
2022/11/02 09:20:18;;;;;;;7.67;1.60;;;12.80;99.90;;;;;;4146499;28;20330;-76
2022/11/02 09:22:19;;;;;;;6.57;1.70;;;12.80;99.90;;;;;;4143861;28;20215;-77
2022/11/02 09:24:21;;;;;;;12.33;2.10;;;12.90;99.90;;;;;;4157340;28;20707;-76
2022/11/02 09:26:23;;;;;;;8.87;1.80;;;12.90;99.90;;;;;;4160466;28;20222;-77
2022/11/02 09:28:25;;;;;;;7.07;1.43;;;13.00;99.90;;;;;;4146906;28;20239;-76
2022/11/02 09:30:28;;;;;;;6.90;1.80;;;13.00;99.90;;;;;;4141691;28;20214;-76
2022/11/02 09:32:32;;;;;;;7.37;1.57;;;13.10;99.90;;;;;;4147931;28;20216;-78
2022/11/02 09:34:35;;;;;;;5.13;1.77;;;13.10;99.90;;;;;;4149905;28;20331;-77
2022/11/02 09:36:37;;;;;;;8.93;2.10;;;13.20;99.90;;;;;;4160913;28;20234;-76
2022/11/02 09:38:39;;;;;;;5.50;1.40;;;13.20;99.90;;;;;;4146108;28;20211;-76
2022/11/02 09:40:44;;;;;;;9.27;1.80;;;13.20;99.90;;;;;;4146442;28;20665;-76
2022/11/02 09:42:56;;;;;;;8.03;1.70;;;13.30;99.90;;;;;;4143332;28;20234;-76
2022/11/02 09:45:01;;;;;;;12.80;1.30;;;13.30;99.90;;;;;;4143743;28;20724;-77
2022/11/02 09:47:03;;;;;;;4.83;1.77;;;13.30;99.90;;;;;;4146714;28;20210;-76
2022/11/02 09:49:10;;;;;;;11.93;1.70;;;13.40;99.90;;;;;;4148028;28;20661;-76
2022/11/02 09:51:15;;;;;;;7.70;1.50;;;13.40;99.90;;;;;;4147988;28;20819;-76
2022/11/02 09:53:21;;;;;;;8.07;1.60;;;13.50;99.90;;;;;;4151665;28;20298;-76
2022/11/02 09:55:29;;;;;;;6.90;1.77;;;13.50;99.90;;;;;;4147686;28;20234;-76
2022/11/02 09:57:33;;;;;;;7.43;1.70;;;13.60;99.90;;;;;;4147623;28;20229;-76
2022/11/02 09:59:35;;;;;;;6.00;1.83;;;13.70;99.90;;;;;;4149794;28;20215;-78
2022/11/02 10:02:03;;;;;;;9.30;2.17;;;13.70;99.90;;;;;;4150583;28;20218;-79
2022/11/02 10:04:39;;;;;;;7.20;1.53;;;13.70;99.90;;;;;;4150764;28;20211;-77
2022/11/02 10:06:47;;;;;;;7.43;1.60;;;13.80;99.90;;;;;;4148487;28;20298;-78
2022/11/02 10:08:57;;;;;;;9.40;1.53;;;13.90;99.90;;;;;;4147585;28;20586;-76
2022/11/02 10:11:12;;;;;;;7.47;1.67;;;13.90;99.90;;;;;;4163080;28;20207;-76
2022/11/02 10:13:26;;;;;;;5.73;1.40;;;13.90;99.90;;;;;;4145876;28;20196;-75
2022/11/02 10:15:35;;;;;;;3.47;1.17;;;14.00;99.90;;;;;;4148247;28;20223;-76
2022/11/02 10:17:40;;;;;;;3.87;1.47;;;14.10;99.90;;;;;;4149639;28;20229;-78
2022/11/02 10:19:48;;;;;;;7.67;1.50;;;14.10;99.90;;;;;;4146271;28;20244;-76
2022/11/02 10:21:56;;;;;;;3.13;1.10;;;14.10;99.90;;;;;;4145172;28;20215;-76
2022/11/02 10:24:03;;;;;;;8.27;1.20;;;14.20;99.90;;;;;;4145487;28;20195;-75
2022/11/02 10:26:05;;;;;;;10.37;1.20;;;14.20;99.90;;;;;;4150532;28;20906;-76
2022/11/02 10:28:14;;;;;;;6.33;1.10;;;14.20;99.90;;;;;;4156894;28;20210;-76
2022/11/02 10:30:19;;;;;;;9.20;1.43;;;14.30;99.90;;;;;;4158068;28;20207;-76
2022/11/02 10:32:20;;;;;;;5.63;1.27;;;14.30;99.90;;;;;;4148526;28;20329;-76
2022/11/02 10:34:25;;;;;;;6.10;1.37;;;14.30;99.90;;;;;;4148856;28;20201;-76
2022/11/02 10:36:38;;;;;;;7.73;1.57;;;14.40;99.90;;;;;;4165215;28;20234;-76
2022/11/02 10:38:54;;;;;;;5.73;1.43;;;14.40;99.90;;;;;;4145078;28;20291;-76
2022/11/02 10:41:09;;;;;;;5.40;1.27;;;14.50;99.90;;;;;;4144691;28;20233;-77
2022/11/02 10:43:21;;;;;;;5.13;1.30;;;14.50;99.90;;;;;;4146093;28;20291;-76
2022/11/02 10:45:46;;;;;;;6.17;1.80;;;14.60;99.90;;;;;;4142523;28;20224;-76
2022/11/02 10:48:01;;;;;;;8.40;1.53;;;14.60;99.90;;;;;;4146407;28;20228;-77
2022/11/02 10:50:33;;;;;;;7.90;1.30;;;14.70;99.90;;;;;;4145639;28;20200;-75
2022/11/02 10:52:37;;;;;;;4.90;1.20;;;14.70;99.90;;;;;;4142838;28;20216;-76
2022/11/02 10:54:40;;;;;;;4.20;1.00;;;14.80;99.90;;;;;;4148530;28;20304;-76
2022/11/02 10:56:45;;;;;;;6.43;1.10;;;14.90;99.90;;;;;;4143578;28;20221;-77
2022/11/02 10:58:57;;;;;;;6.33;1.50;;;14.90;99.90;;;;;;4148096;28;20270;-76
2022/11/02 11:01:07;;;;;;;7.53;1.43;;;15.00;99.90;;;;;;4144322;28;20210;-76
2022/11/02 11:03:11;;;;;;;6.00;1.40;;;15.10;99.90;;;;;;4147120;28;20677;-76
2022/11/02 11:05:13;;;;;;;9.10;1.20;;;15.20;96.60;;;;;;4145278;28;20982;-76
2022/11/02 11:07:20;;;;;;;9.47;1.43;;;15.20;93.60;;;;;;4146332;28;20308;-74